This is the latest recevied weather packets stored in our database for station/object KM4NDN. If no packets are shown the sender has not sent any weather packets the latest 10 day(s).
| Time | Temp. | Humidity | Pressure | Rain* | Wind** | Luminosity | Snow |
|---|---|---|---|---|---|---|---|
| 1777854231 | 12.22° C | 57% | 1010.2 hPa | 0 mm | - | 4 W/m² | - |
| 1777853929 | 12.22° C | 59% | 1010.1 hPa | 0 mm | - | 6 W/m² | - |
| 1777853626 | 12.22° C | 59% | 1010.2 hPa | 0 mm | - | 10 W/m² | - |
| 1777853323 | 12.22° C | 59% | 1010.2 hPa | 0 mm | - | 14 W/m² | - |
| 1777853020 | 12.78° C | 58% | 1010.1 hPa | 0 mm | - | 20 W/m² | - |
| 1777852718 | 12.78° C | 57% | 1010.2 hPa | 0 mm | - | 24 W/m² | - |
| 1777852415 | 13.33° C | 57% | 1010.1 hPa | 0 mm | - | 29 W/m² | - |
| 1777852112 | 13.33° C | 57% | 1009.9 hPa | 0 mm | - | 34 W/m² | - |
| 1777851810 | 13.89° C | 54% | 1009.9 hPa | 0 mm | - | 32 W/m² | - |
| 1777851508 | 14.44° C | 40% | 1010 hPa | 0 mm | - | 37 W/m² | - |
| 1777851203 | 14.44° C | 38% | 1009.5 hPa | 0 mm | - | 42 W/m² | - |
| 1777850900 | 14.44° C | 37% | 1009.7 hPa | 0 mm | - | 41 W/m² | - |
| 1777850598 | 15° C | 37% | 1009.7 hPa | 0 mm | - | 42 W/m² | - |
| 1777850296 | 15° C | 35% | 1009.9 hPa | 0 mm | - | 49 W/m² | - |
| 1777849992 | 15.56° C | 35% | 1009.8 hPa | 0 mm | - | 61 W/m² | - |
| 1777849688 | 15.56° C | 35% | 1009.9 hPa | 0 mm | - | 70 W/m² | - |
| 1777849385 | 15.56° C | 36% | 1009.9 hPa | 0 mm | - | 88 W/m² | - |
| 1777849083 | 15° C | 36% | 1009.9 hPa | 0 mm | - | 98 W/m² | - |
| 1777848778 | 15.56° C | 36% | 1010 hPa | 0 mm | - | 71 W/m² | - |
| 1777848475 | 15.56° C | 36% | 1009.6 hPa | 0 mm | - | 128 W/m² | - |
| 1777848173 | 15.56° C | 36% | 1010 hPa | 0 mm | - | 131 W/m² | - |
| 1777847870 | 16.11° C | 36% | 1009.9 hPa | 0 mm | - | 105 W/m² | - |
| 1777847568 | 15.56° C | 35% | 1009.9 hPa | 0 mm | - | 171 W/m² | - |
| 1777847263 | 16.11° C | 34% | 1009.9 hPa | 0 mm | - | 176 W/m² | - |
| 1777846962 | 16.11° C | 35% | 1009.9 hPa | 0 mm | - | 189 W/m² | - |
* Rain latest hour (hover to see other rain measurements)
** Current wind speed in m/s (hover to see current wind gust speed)